createdAt,value
2018-06-24T00:00:02.692Z,85.90
2018-06-24T00:02:35.857Z,85.60
2018-06-24T00:05:09.044Z,85.20
2018-06-24T00:07:42.172Z,84.70
2018-06-24T00:10:15.338Z,84.40
2018-06-24T00:12:48.437Z,84.20
2018-06-24T00:15:21.623Z,84.00
2018-06-24T00:17:54.828Z,83.40
2018-06-24T00:20:28.000Z,83.10
2018-06-24T00:23:01.177Z,82.60
2018-06-24T00:25:34.221Z,82.20
2018-06-24T00:28:07.323Z,81.70
2018-06-24T00:33:12.109Z,80.50
2018-06-24T00:35:45.186Z,80.00
2018-06-24T00:38:18.191Z,79.50
2018-06-24T00:40:51.314Z,79.40
2018-06-24T00:43:24.371Z,79.20
2018-06-24T00:45:57.485Z,79.10
2018-06-24T00:48:30.521Z,78.90
2018-06-24T00:51:03.590Z,78.40
2018-06-24T00:53:36.644Z,78.40
2018-06-24T00:56:09.826Z,78.40
2018-06-24T00:58:44.813Z,78.30
2018-06-24T01:01:18.169Z,78.00
2018-06-24T01:03:51.323Z,77.80
2018-06-24T01:06:24.406Z,77.60
2018-06-24T01:08:57.540Z,77.20
2018-06-24T01:11:30.627Z,76.80
2018-06-24T01:14:04.161Z,76.20
2018-06-24T01:16:36.936Z,75.50
2018-06-24T01:19:10.034Z,74.40
2018-06-24T01:21:43.279Z,73.80
2018-06-24T01:24:16.356Z,73.30
2018-06-24T01:26:49.625Z,72.80
2018-06-24T01:29:22.836Z,72.00
2018-06-24T01:31:55.906Z,71.10
2018-06-24T01:34:29.106Z,70.60
2018-06-24T01:37:02.282Z,70.50
2018-06-24T01:39:35.698Z,70.00
2018-06-24T01:42:08.752Z,69.50
2018-06-24T01:44:41.885Z,69.20
2018-06-24T01:47:14.883Z,69.00
2018-06-24T01:49:48.026Z,68.50
2018-06-24T01:52:21.140Z,68.00
2018-06-24T01:54:54.305Z,67.50
2018-06-24T01:57:27.704Z,67.20
2018-06-24T02:00:00.758Z,66.90
2018-06-24T02:02:33.876Z,66.70
2018-06-24T02:05:06.994Z,66.60
2018-06-24T02:07:40.093Z,66.20
2018-06-24T02:10:13.360Z,65.60
2018-06-24T02:12:46.464Z,65.60
2018-06-24T02:15:19.524Z,64.90
2018-06-24T02:17:52.617Z,64.50
2018-06-24T02:20:25.728Z,64.30
2018-06-24T02:22:58.892Z,64.10
2018-06-24T02:25:31.973Z,63.60
2018-06-24T02:28:05.037Z,63.30
2018-06-24T02:30:38.260Z,62.80
2018-06-24T02:33:11.283Z,62.30
2018-06-24T02:35:45.315Z,62.00
2018-06-24T02:38:18.450Z,61.50
2018-06-24T02:40:51.626Z,61.00
2018-06-24T02:43:24.720Z,60.80
2018-06-24T02:45:57.790Z,60.20
2018-06-24T02:48:30.929Z,59.40
2018-06-24T02:51:04.059Z,59.00
2018-06-24T02:56:09.218Z,58.70
2018-06-24T02:58:42.273Z,59.10
2018-06-24T03:01:15.293Z,59.20
2018-06-24T03:03:48.370Z,59.40
2018-06-24T03:06:21.685Z,59.60
2018-06-24T03:08:54.809Z,59.10
2018-06-24T03:11:27.817Z,58.80
2018-06-24T03:14:01.888Z,59.10
2018-06-24T03:16:35.108Z,59.20
2018-06-24T03:19:08.973Z,58.60
2018-06-24T03:21:42.086Z,58.30
2018-06-24T03:24:15.211Z,58.30
2018-06-24T03:26:52.536Z,58.10
2018-06-24T03:29:25.622Z,58.40
2018-06-24T03:31:58.921Z,58.30
2018-06-24T03:34:31.972Z,58.10
2018-06-24T03:37:05.111Z,58.00
2018-06-24T03:39:38.311Z,58.20
2018-06-24T03:42:11.353Z,58.40
2018-06-24T03:44:45.092Z,58.30
2018-06-24T03:47:18.344Z,58.60
2018-06-24T03:49:51.406Z,58.60
2018-06-24T03:52:24.457Z,59.00
2018-06-24T03:57:29.145Z,60.20
2018-06-24T04:02:40.007Z,59.70
2018-06-24T04:05:13.706Z,60.00
2018-06-24T04:07:46.787Z,60.10
2018-06-24T04:10:19.812Z,60.40
2018-06-24T04:12:53.124Z,60.40
2018-06-24T04:15:26.145Z,61.60
2018-06-24T04:17:59.364Z,60.70
2018-06-24T04:20:32.547Z,60.00
2018-06-24T04:23:05.715Z,59.20
2018-06-24T04:25:38.868Z,59.40
2018-06-24T04:28:12.137Z,59.40
2018-06-24T04:30:45.232Z,59.20
2018-06-24T04:33:18.395Z,60.00
2018-06-24T04:35:51.551Z,58.90
2018-06-24T04:38:24.636Z,58.80
2018-06-24T04:40:57.847Z,58.60
2018-06-24T04:43:31.264Z,58.70
2018-06-24T04:48:36.413Z,59.30
2018-06-24T04:53:41.228Z,59.80
2018-06-24T04:56:14.380Z,60.00
2018-06-24T04:58:47.478Z,60.70
2018-06-24T05:01:20.616Z,60.20
2018-06-24T05:03:53.857Z,60.40
2018-06-24T05:06:27.101Z,61.00
2018-06-24T05:09:00.216Z,62.00
2018-06-24T05:11:33.273Z,62.30
2018-06-24T05:14:06.286Z,62.30
2018-06-24T05:16:39.413Z,62.20
2018-06-24T05:19:12.600Z,62.40
2018-06-24T05:21:45.767Z,62.90
2018-06-24T05:24:18.855Z,63.40
2018-06-24T05:26:51.908Z,64.30
2018-06-24T05:29:25.227Z,66.90
2018-06-24T05:31:58.465Z,69.00
2018-06-24T05:34:31.532Z,71.70
2018-06-24T05:37:04.633Z,73.00
2018-06-24T05:39:37.762Z,75.10
2018-06-24T05:42:10.896Z,76.90
2018-06-24T05:44:51.139Z,78.60
2018-06-24T05:47:24.612Z,77.70
2018-06-24T05:49:57.713Z,79.30
2018-06-24T05:52:30.851Z,79.30
2018-06-24T05:55:03.909Z,76.30
2018-06-24T05:57:36.937Z,77.40
2018-06-24T06:00:12.501Z,78.30
2018-06-24T06:02:45.649Z,79.30
2018-06-24T06:05:18.685Z,79.30
2018-06-24T06:07:51.824Z,79.30
2018-06-24T06:10:25.027Z,79.20
2018-06-24T06:15:29.981Z,79.20
2018-06-24T06:18:03.049Z,78.90
2018-06-24T06:20:36.146Z,78.20
2018-06-24T06:23:09.214Z,78.30
2018-06-24T06:25:42.361Z,79.00
2018-06-24T06:28:15.443Z,79.20
2018-06-24T06:30:48.659Z,79.20
2018-06-24T06:33:21.774Z,79.20
2018-06-24T06:35:55.292Z,79.50
2018-06-24T06:38:28.585Z,80.00
2018-06-24T06:41:01.585Z,79.70
2018-06-24T06:43:34.775Z,79.90
2018-06-24T06:46:11.455Z,79.60
2018-06-24T06:48:44.573Z,79.40
2018-06-24T06:51:17.616Z,79.40
2018-06-24T06:53:50.648Z,79.30
2018-06-24T06:56:23.744Z,78.90
2018-06-24T06:58:56.797Z,78.40
2018-06-24T07:01:30.194Z,77.60
2018-06-24T07:04:03.246Z,77.30
2018-06-24T07:06:36.726Z,77.00
2018-06-24T07:09:12.518Z,77.10
2018-06-24T07:11:45.678Z,77.20
2018-06-24T07:14:18.846Z,77.50
2018-06-24T07:16:51.931Z,78.30
2018-06-24T07:19:25.241Z,78.20
2018-06-24T07:21:58.311Z,78.00
2018-06-24T07:24:31.447Z,78.10
2018-06-24T07:27:04.625Z,78.00
2018-06-24T07:29:37.874Z,77.70
2018-06-24T07:32:10.953Z,76.90
2018-06-24T07:34:44.060Z,76.60
2018-06-24T07:37:17.107Z,76.40
2018-06-24T07:39:50.259Z,76.30
2018-06-24T07:42:23.412Z,76.20
2018-06-24T07:44:56.422Z,75.80
2018-06-24T07:47:29.453Z,75.40
2018-06-24T07:50:02.514Z,76.30
2018-06-24T07:52:35.606Z,76.50
2018-06-24T07:55:09.049Z,75.60
2018-06-24T07:57:42.052Z,75.40
2018-06-24T08:00:15.156Z,75.60
2018-06-24T08:02:48.367Z,75.50
2018-06-24T08:05:21.606Z,74.10
2018-06-24T08:07:54.923Z,73.60
2018-06-24T08:10:28.189Z,71.10
2018-06-24T08:13:01.312Z,70.40
2018-06-24T08:15:34.398Z,69.30
2018-06-24T08:18:07.496Z,71.20
2018-06-24T08:20:40.634Z,69.40
2018-06-24T08:23:13.592Z,71.50
2018-06-24T08:25:46.731Z,74.20
2018-06-24T08:28:19.810Z,74.50
2018-06-24T08:30:52.847Z,75.30
2018-06-24T08:33:25.867Z,76.50
2018-06-24T08:35:58.996Z,77.00
2018-06-24T08:38:31.981Z,77.40
2018-06-24T08:41:05.161Z,77.60
2018-06-24T08:43:38.312Z,75.70
2018-06-24T08:46:11.610Z,74.90
2018-06-24T08:48:44.691Z,76.40
2018-06-24T08:51:17.721Z,76.60
2018-06-24T08:53:50.692Z,75.80
2018-06-24T08:56:23.749Z,76.80
2018-06-24T08:58:57.242Z,76.00
2018-06-24T09:01:30.311Z,76.10
2018-06-24T09:04:03.368Z,76.30
2018-06-24T09:06:36.548Z,78.20
2018-06-24T09:09:12.449Z,76.60
2018-06-24T09:11:45.634Z,78.10
2018-06-24T09:14:18.773Z,79.90
2018-06-24T09:16:51.909Z,79.20
2018-06-24T09:19:25.038Z,78.90
2018-06-24T09:21:58.192Z,78.70
2018-06-24T09:24:31.429Z,78.60
2018-06-24T09:27:04.473Z,79.00
2018-06-24T09:29:37.692Z,79.30
2018-06-24T09:32:10.835Z,79.50
2018-06-24T09:34:43.979Z,79.10
2018-06-24T09:37:17.174Z,78.60
2018-06-24T09:39:50.310Z,79.00
2018-06-24T09:42:23.784Z,79.30
2018-06-24T09:44:57.056Z,79.00
2018-06-24T09:47:30.389Z,79.30
2018-06-24T09:50:03.420Z,79.50
2018-06-24T09:52:36.469Z,79.90
2018-06-24T09:55:09.452Z,78.30
2018-06-24T09:57:42.492Z,78.20
2018-06-24T10:00:19.789Z,78.00
2018-06-24T10:02:53.957Z,78.40
2018-06-24T10:05:27.117Z,79.50
2018-06-24T10:08:00.179Z,80.30
2018-06-24T10:10:33.368Z,80.40
2018-06-24T10:13:06.426Z,80.70
2018-06-24T10:15:39.601Z,80.30
2018-06-24T10:18:12.674Z,80.30
2018-06-24T10:20:46.027Z,81.00
2018-06-24T10:23:19.177Z,81.10
2018-06-24T10:25:52.241Z,81.30
2018-06-24T10:28:25.324Z,81.40
2018-06-24T10:30:58.456Z,82.10
2018-06-24T10:33:31.725Z,82.40
2018-06-24T10:36:04.761Z,82.00
2018-06-24T10:38:37.768Z,82.10
2018-06-24T10:41:11.006Z,83.10
2018-06-24T10:43:44.145Z,82.40
2018-06-24T10:46:17.213Z,82.60
2018-06-24T10:48:50.487Z,81.70
2018-06-24T10:51:23.536Z,81.60
2018-06-24T10:53:56.683Z,81.80
2018-06-24T10:56:29.844Z,82.50
2018-06-24T10:59:02.982Z,82.40
2018-06-24T11:01:36.102Z,83.00
2018-06-24T11:04:09.157Z,82.90
2018-06-24T11:06:42.308Z,83.20
2018-06-24T11:09:15.404Z,83.70
2018-06-24T11:11:48.580Z,84.30
2018-06-24T11:14:21.762Z,84.80
2018-06-24T11:16:55.198Z,85.00
2018-06-24T11:19:28.341Z,85.00
2018-06-24T11:22:01.580Z,85.00
2018-06-24T11:24:34.729Z,85.10
2018-06-24T11:27:07.843Z,85.30
2018-06-24T11:29:40.907Z,85.10
2018-06-24T11:32:14.077Z,85.40
2018-06-24T11:34:47.177Z,85.80
2018-06-24T11:37:20.224Z,86.30
2018-06-24T11:39:53.418Z,86.60
2018-06-24T11:42:26.613Z,86.80
2018-06-24T11:44:59.738Z,86.70
2018-06-24T11:47:33.226Z,86.80
2018-06-24T11:50:06.397Z,86.70
2018-06-24T11:52:39.544Z,86.90
2018-06-24T11:55:12.657Z,86.80
2018-06-24T11:57:45.845Z,86.90
2018-06-24T12:02:50.536Z,87.00
2018-06-24T12:05:23.816Z,86.90
2018-06-24T12:07:56.964Z,86.90
2018-06-24T12:10:30.076Z,87.00
2018-06-24T12:15:34.889Z,87.50
2018-06-24T12:18:08.249Z,87.40
2018-06-24T12:20:41.485Z,86.90
2018-06-24T12:23:14.626Z,86.90
2018-06-24T12:25:47.825Z,86.90
2018-06-24T12:28:21.061Z,87.00
2018-06-24T12:30:54.626Z,87.70
2018-06-24T12:33:27.704Z,88.30
2018-06-24T12:36:00.867Z,88.30
2018-06-24T12:38:33.987Z,88.40
2018-06-24T12:41:07.012Z,88.60
2018-06-24T12:43:44.979Z,88.60
2018-06-24T12:46:18.100Z,88.50
2018-06-24T12:48:52.181Z,88.40
2018-06-24T12:51:25.281Z,88.50
2018-06-24T12:53:59.352Z,88.60
2018-06-24T12:56:33.717Z,88.70
2018-06-24T12:59:07.550Z,88.60
2018-06-24T13:01:40.858Z,88.60
2018-06-24T13:04:13.888Z,88.60
2018-06-24T13:06:47.029Z,89.10
2018-06-24T13:09:20.161Z,88.30
2018-06-24T13:11:53.431Z,88.30
2018-06-24T13:14:26.576Z,88.50
2018-06-24T13:16:59.651Z,88.70
2018-06-24T13:19:33.905Z,88.90
2018-06-24T13:22:06.995Z,88.80
2018-06-24T13:24:40.306Z,88.90
2018-06-24T13:27:13.405Z,89.00
2018-06-24T13:29:46.584Z,88.90
2018-06-24T13:32:19.749Z,89.00
2018-06-24T13:34:52.959Z,88.70
2018-06-24T13:37:26.254Z,88.80
2018-06-24T13:39:59.525Z,88.70
2018-06-24T13:42:32.817Z,88.60
2018-06-24T13:45:07.046Z,88.70
2018-06-24T13:47:40.320Z,88.90
2018-06-24T13:50:13.959Z,89.00
2018-06-24T13:52:47.284Z,89.10
2018-06-24T13:55:20.588Z,89.00
2018-06-24T13:57:53.720Z,89.30
2018-06-24T14:00:27.630Z,89.30
2018-06-24T14:03:01.893Z,89.00
2018-06-24T14:05:34.933Z,89.20
2018-06-24T14:08:08.361Z,89.00
2018-06-24T14:10:41.476Z,88.90
2018-06-24T14:13:14.594Z,88.00
2018-06-24T14:15:48.209Z,87.80
2018-06-24T14:18:21.395Z,87.80
2018-06-24T14:20:54.637Z,88.60
2018-06-24T14:23:27.826Z,88.40
2018-06-24T14:26:01.088Z,88.50
2018-06-24T14:28:34.158Z,88.50
2018-06-24T14:31:07.568Z,88.50
2018-06-24T14:33:40.727Z,88.90
2018-06-24T14:36:13.753Z,89.00
2018-06-24T14:38:47.155Z,89.30
2018-06-24T14:41:20.307Z,89.20
2018-06-24T14:43:53.373Z,89.30
2018-06-24T14:46:26.549Z,89.20
2018-06-24T14:48:59.675Z,89.40
2018-06-24T14:51:32.812Z,89.60
2018-06-24T14:54:05.920Z,89.60
2018-06-24T14:56:39.144Z,89.60
2018-06-24T14:59:12.345Z,89.20
2018-06-24T15:01:45.432Z,89.40
2018-06-24T15:04:18.600Z,89.60
2018-06-24T15:06:51.645Z,89.60
2018-06-24T15:09:24.765Z,89.60
2018-06-24T15:11:57.886Z,89.40
2018-06-24T15:14:30.972Z,89.40
2018-06-24T15:17:04.157Z,89.60
2018-06-24T15:19:37.320Z,89.90
2018-06-24T15:22:10.424Z,90.00
2018-06-24T15:24:43.461Z,90.00
2018-06-24T15:27:16.582Z,89.50
2018-06-24T15:29:49.656Z,89.90
2018-06-24T15:32:22.948Z,90.00
2018-06-24T15:34:56.011Z,89.80
2018-06-24T15:37:29.030Z,89.70
2018-06-24T15:40:02.211Z,89.60
2018-06-24T15:42:35.288Z,89.70
2018-06-24T15:45:08.645Z,89.90
2018-06-24T15:47:42.097Z,89.90
2018-06-24T15:50:15.296Z,89.80
2018-06-24T15:52:48.301Z,89.80
2018-06-24T15:55:21.476Z,89.90
2018-06-24T15:57:54.615Z,90.00
2018-06-24T16:00:27.703Z,90.10
2018-06-24T16:03:00.734Z,90.10
2018-06-24T16:05:33.765Z,89.70
2018-06-24T16:08:06.799Z,89.50
2018-06-24T16:10:39.907Z,89.30
2018-06-24T16:13:13.009Z,89.30
2018-06-24T16:15:46.147Z,89.10
2018-06-24T16:18:19.339Z,89.10
2018-06-24T16:23:24.148Z,89.70
2018-06-24T16:25:57.686Z,89.80
2018-06-24T16:28:30.728Z,89.60
2018-06-24T16:31:03.841Z,89.50
2018-06-24T16:33:36.936Z,89.40
2018-06-24T16:36:10.075Z,89.30
2018-06-24T16:38:43.211Z,89.00
2018-06-24T16:41:16.338Z,88.80
2018-06-24T16:43:49.368Z,89.00
2018-06-24T16:46:24.159Z,89.20
2018-06-24T16:48:57.296Z,89.30
2018-06-24T16:51:30.657Z,89.20
2018-06-24T16:54:03.778Z,89.30
2018-06-24T16:56:36.878Z,89.30
2018-06-24T16:59:10.148Z,89.40
2018-06-24T17:01:43.242Z,89.40
2018-06-24T17:04:16.375Z,89.50
2018-06-24T17:06:50.648Z,89.70
2018-06-24T17:09:23.881Z,89.80
2018-06-24T17:11:56.880Z,89.70
2018-06-24T17:14:30.000Z,90.00
2018-06-24T17:17:03.099Z,89.10
2018-06-24T17:19:36.292Z,88.80
2018-06-24T17:22:09.541Z,88.80
2018-06-24T17:24:44.503Z,88.60
2018-06-24T17:27:18.480Z,88.60
2018-06-24T17:29:51.517Z,88.50
2018-06-24T17:32:26.053Z,88.90
2018-06-24T17:34:59.063Z,89.00
2018-06-24T17:37:32.190Z,89.30
2018-06-24T17:40:05.224Z,89.30
2018-06-24T17:42:38.326Z,89.50
2018-06-24T17:45:11.507Z,88.90
2018-06-24T17:47:44.662Z,88.90
2018-06-24T17:50:17.750Z,88.80
2018-06-24T17:52:50.981Z,88.70
2018-06-24T17:55:24.169Z,88.30
2018-06-24T17:57:57.237Z,88.20
2018-06-24T18:00:30.424Z,88.70
2018-06-24T18:03:03.564Z,88.90
2018-06-24T18:08:08.387Z,89.30
2018-06-24T18:10:45.400Z,89.50
2018-06-24T18:13:18.596Z,89.80
2018-06-24T18:15:51.748Z,89.90
2018-06-24T18:18:25.177Z,89.90
2018-06-24T18:20:58.318Z,89.80
2018-06-24T18:23:31.381Z,89.60
2018-06-24T18:26:04.634Z,89.60
2018-06-24T18:28:37.704Z,89.70
2018-06-24T18:31:10.861Z,89.60
2018-06-24T18:33:44.039Z,89.50
2018-06-24T18:36:17.108Z,89.70
2018-06-24T18:38:50.221Z,89.80
2018-06-24T18:41:23.337Z,89.30
2018-06-24T18:43:56.409Z,88.90
2018-06-24T18:46:29.492Z,88.60
2018-06-24T18:49:02.859Z,88.80
2018-06-24T18:51:36.154Z,88.80
2018-06-24T18:54:09.642Z,88.90
2018-06-24T18:56:42.869Z,89.00
2018-06-24T18:59:15.868Z,89.20
2018-06-24T19:01:48.999Z,89.20
2018-06-24T19:04:22.027Z,89.00
2018-06-24T19:06:55.224Z,89.00
2018-06-24T19:09:28.605Z,89.00
2018-06-24T19:12:01.737Z,89.20
2018-06-24T19:14:34.763Z,89.40
2018-06-24T19:17:07.891Z,89.60
2018-06-24T19:19:40.949Z,89.70
2018-06-24T19:22:13.975Z,89.70
2018-06-24T19:24:47.051Z,89.50
2018-06-24T19:27:20.168Z,89.60
2018-06-24T19:29:53.352Z,89.80
2018-06-24T19:32:26.966Z,89.80
2018-06-24T19:35:00.180Z,89.80
2018-06-24T19:37:33.362Z,89.50
2018-06-24T19:40:06.581Z,89.40
2018-06-24T19:42:39.732Z,89.10
2018-06-24T19:45:12.860Z,89.30
2018-06-24T19:47:45.940Z,89.40
2018-06-24T19:50:21.069Z,89.60
2018-06-24T19:53:02.873Z,89.80
2018-06-24T19:55:38.968Z,89.70
2018-06-24T19:58:12.045Z,89.60
2018-06-24T20:00:45.140Z,89.60
2018-06-24T20:03:18.524Z,89.50
2018-06-24T20:05:51.760Z,89.70
2018-06-24T20:08:25.651Z,89.90
2018-06-24T20:10:58.719Z,90.00
2018-06-24T20:13:31.793Z,90.10
2018-06-24T20:16:04.900Z,90.10
2018-06-24T20:18:37.990Z,90.10
2018-06-24T20:21:11.188Z,90.10
2018-06-24T20:23:44.331Z,90.10
2018-06-24T20:26:17.397Z,90.10
2018-06-24T20:28:50.498Z,90.20
2018-06-24T20:31:23.581Z,90.20
2018-06-24T20:33:56.975Z,90.20
2018-06-24T20:36:30.042Z,90.00
2018-06-24T20:39:03.150Z,90.10
2018-06-24T20:41:36.344Z,90.00
2018-06-24T20:44:09.396Z,89.90
2018-06-24T20:46:42.764Z,90.20
2018-06-24T20:49:15.821Z,90.20
2018-06-24T20:51:48.900Z,90.10
2018-06-24T20:54:22.108Z,90.10
2018-06-24T20:56:55.252Z,90.00
2018-06-24T20:59:28.375Z,90.00
2018-06-24T21:02:01.615Z,90.00
2018-06-24T21:04:38.145Z,89.90
2018-06-24T21:07:12.061Z,90.00
2018-06-24T21:09:47.248Z,90.10
2018-06-24T21:12:20.344Z,90.10
2018-06-24T21:14:53.576Z,90.10
2018-06-24T21:17:26.720Z,90.20
2018-06-24T21:19:59.773Z,90.00
2018-06-24T21:22:32.879Z,90.10
2018-06-24T21:25:06.005Z,90.30
2018-06-24T21:27:39.130Z,90.40
2018-06-24T21:30:12.234Z,90.20
2018-06-24T21:32:45.411Z,90.30
2018-06-24T21:35:18.535Z,90.30
2018-06-24T21:37:51.471Z,90.30
2018-06-24T21:40:24.914Z,90.20
2018-06-24T21:42:58.069Z,90.00
2018-06-24T21:45:31.147Z,89.70
2018-06-24T21:48:04.233Z,89.70
2018-06-24T21:50:37.310Z,89.90
2018-06-24T21:53:11.503Z,89.80
2018-06-24T21:55:51.693Z,89.60
2018-06-24T21:58:24.904Z,89.40
2018-06-24T22:00:57.888Z,89.50
2018-06-24T22:03:31.061Z,89.60
2018-06-24T22:06:04.186Z,89.60
2018-06-24T22:08:37.372Z,89.70
2018-06-24T22:11:11.549Z,89.80
2018-06-24T22:13:44.533Z,90.00
2018-06-24T22:16:17.732Z,90.00
2018-06-24T22:18:50.816Z,89.90
2018-06-24T22:21:23.951Z,89.80
2018-06-24T22:23:58.159Z,89.90
2018-06-24T22:26:31.274Z,89.90
2018-06-24T22:29:04.456Z,90.00
2018-06-24T22:31:37.642Z,90.00
2018-06-24T22:34:12.457Z,89.80
2018-06-24T22:36:45.542Z,89.80
2018-06-24T22:39:18.582Z,89.90
2018-06-24T22:41:51.866Z,89.90
2018-06-24T22:44:24.876Z,90.00
2018-06-24T22:46:57.853Z,89.90
2018-06-24T22:49:30.969Z,89.80
2018-06-24T22:52:03.972Z,89.70
2018-06-24T22:54:37.094Z,89.80
2018-06-24T22:57:11.146Z,89.80
2018-06-24T22:59:53.208Z,90.00
2018-06-24T23:02:26.224Z,90.10
2018-06-24T23:04:59.277Z,90.20
2018-06-24T23:07:32.304Z,90.00
2018-06-24T23:10:06.423Z,90.10
2018-06-24T23:12:39.442Z,90.20
2018-06-24T23:15:13.146Z,90.20
2018-06-24T23:17:46.265Z,90.30
2018-06-24T23:20:19.493Z,90.40
2018-06-24T23:22:52.567Z,90.40
2018-06-24T23:25:26.602Z,90.30
2018-06-24T23:27:59.747Z,90.30
2018-06-24T23:30:32.877Z,90.40
2018-06-24T23:33:05.945Z,90.30
2018-06-24T23:35:39.014Z,90.30
2018-06-24T23:38:12.236Z,90.30
2018-06-24T23:40:45.324Z,90.10
2018-06-24T23:43:18.584Z,90.10
2018-06-24T23:45:51.743Z,90.00
2018-06-24T23:48:24.904Z,89.40
2018-06-24T23:50:58.007Z,89.20
2018-06-24T23:53:31.052Z,89.00
2018-06-24T23:56:04.375Z,88.90
2018-06-24T23:58:42.989Z,88.70
